sensor_id;sensor_type;location;lat;lon;timestamp;temperature;humidity
7576;DHT22;3829;50.798;4.358;2024-01-15T00:01:16;2.60;99.90
7576;DHT22;3829;50.798;4.358;2024-01-15T00:03:42;2.60;99.90
7576;DHT22;3829;50.798;4.358;2024-01-15T00:06:07;2.60;99.90
7576;DHT22;3829;50.798;4.358;2024-01-15T00:08:33;2.60;99.90
7576;DHT22;3829;50.798;4.358;2024-01-15T00:10:58;2.60;99.90
7576;DHT22;3829;50.798;4.358;2024-01-15T00:13:24;2.60;99.90
7576;DHT22;3829;50.798;4.358;2024-01-15T00:15:49;2.60;99.90
7576;DHT22;3829;50.798;4.358;2024-01-15T00:18:15;2.70;99.90
7576;DHT22;3829;50.798;4.358;2024-01-15T00:20:41;2.70;99.90
7576;DHT22;3829;50.798;4.358;2024-01-15T00:23:06;2.60;99.90
7576;DHT22;3829;50.798;4.358;2024-01-15T00:25:32;2.60;99.90
7576;DHT22;3829;50.798;4.358;2024-01-15T00:27:57;2.50;99.90
7576;DHT22;3829;50.798;4.358;2024-01-15T00:30:23;2.60;99.90
7576;DHT22;3829;50.798;4.358;2024-01-15T00:32:48;2.60;99.90
7576;DHT22;3829;50.798;4.358;2024-01-15T00:35:14;2.50;99.90
7576;DHT22;3829;50.798;4.358;2024-01-15T00:37:40;2.60;99.90
7576;DHT22;3829;50.798;4.358;2024-01-15T00:40:06;2.60;99.90
7576;DHT22;3829;50.798;4.358;2024-01-15T00:42:33;2.60;99.90
7576;DHT22;3829;50.798;4.358;2024-01-15T00:44:58;2.70;99.90
7576;DHT22;3829;50.798;4.358;2024-01-15T00:47:24;2.50;99.90
7576;DHT22;3829;50.798;4.358;2024-01-15T00:49:49;2.60;99.90
7576;DHT22;3829;50.798;4.358;2024-01-15T00:52:15;2.70;99.90
7576;DHT22;3829;50.798;4.358;2024-01-15T00:54:40;2.80;99.90
7576;DHT22;3829;50.798;4.358;2024-01-15T00:57:06;2.70;99.90
7576;DHT22;3829;50.798;4.358;2024-01-15T00:59:31;2.80;99.90
7576;DHT22;3829;50.798;4.358;2024-01-15T01:01:57;2.80;99.90
7576;DHT22;3829;50.798;4.358;2024-01-15T01:04:22;2.90;99.90
7576;DHT22;3829;50.798;4.358;2024-01-15T01:06:48;2.80;99.90
7576;DHT22;3829;50.798;4.358;2024-01-15T01:09:14;3.00;99.90
7576;DHT22;3829;50.798;4.358;2024-01-15T01:11:39;2.80;99.90
7576;DHT22;3829;50.798;4.358;2024-01-15T01:14:05;2.90;99.90
7576;DHT22;3829;50.798;4.358;2024-01-15T01:16:31;2.90;99.90
7576;DHT22;3829;50.798;4.358;2024-01-15T01:18:59;2.90;99.90
7576;DHT22;3829;50.798;4.358;2024-01-15T01:21:25;2.90;99.90
7576;DHT22;3829;50.798;4.358;2024-01-15T01:23:50;3.10;99.90
7576;DHT22;3829;50.798;4.358;2024-01-15T01:26:17;3.10;99.90
7576;DHT22;3829;50.798;4.358;2024-01-15T01:28:42;3.00;99.90
7576;DHT22;3829;50.798;4.358;2024-01-15T01:31:08;2.90;99.90
7576;DHT22;3829;50.798;4.358;2024-01-15T01:33:34;2.80;99.90
7576;DHT22;3829;50.798;4.358;2024-01-15T01:35:59;2.90;99.90
7576;DHT22;3829;50.798;4.358;2024-01-15T01:38:25;2.90;99.90
7576;DHT22;3829;50.798;4.358;2024-01-15T01:40:50;2.80;99.90
7576;DHT22;3829;50.798;4.358;2024-01-15T01:43:16;2.90;99.90
7576;DHT22;3829;50.798;4.358;2024-01-15T01:45:41;2.90;99.90
7576;DHT22;3829;50.798;4.358;2024-01-15T01:48:07;2.90;99.90
7576;DHT22;3829;50.798;4.358;2024-01-15T01:50:33;2.80;99.90
7576;DHT22;3829;50.798;4.358;2024-01-15T01:53:00;2.80;99.90
7576;DHT22;3829;50.798;4.358;2024-01-15T01:55:27;2.70;99.90
7576;DHT22;3829;50.798;4.358;2024-01-15T01:57:55;2.80;99.90
7576;DHT22;3829;50.798;4.358;2024-01-15T02:00:20;2.80;99.90
7576;DHT22;3829;50.798;4.358;2024-01-15T02:02:46;2.90;99.90
7576;DHT22;3829;50.798;4.358;2024-01-15T02:05:14;2.90;99.90
7576;DHT22;3829;50.798;4.358;2024-01-15T02:07:44;2.90;99.90
7576;DHT22;3829;50.798;4.358;2024-01-15T02:10:10;3.00;99.90
7576;DHT22;3829;50.798;4.358;2024-01-15T02:12:36;3.00;99.90
7576;DHT22;3829;50.798;4.358;2024-01-15T02:15:01;3.00;99.90
7576;DHT22;3829;50.798;4.358;2024-01-15T02:17:27;3.00;99.90
7576;DHT22;3829;50.798;4.358;2024-01-15T02:19:52;3.00;99.90
7576;DHT22;3829;50.798;4.358;2024-01-15T02:22:18;3.10;99.90
7576;DHT22;3829;50.798;4.358;2024-01-15T02:24:43;3.10;99.90
7576;DHT22;3829;50.798;4.358;2024-01-15T02:27:09;3.20;99.90
7576;DHT22;3829;50.798;4.358;2024-01-15T02:29:35;3.10;99.90
7576;DHT22;3829;50.798;4.358;2024-01-15T02:32:05;3.30;99.90
7576;DHT22;3829;50.798;4.358;2024-01-15T02:34:32;3.30;99.90
7576;DHT22;3829;50.798;4.358;2024-01-15T02:36:58;3.30;99.90
7576;DHT22;3829;50.798;4.358;2024-01-15T02:39:23;3.30;99.90
7576;DHT22;3829;50.798;4.358;2024-01-15T02:41:49;3.30;99.90
7576;DHT22;3829;50.798;4.358;2024-01-15T02:44:14;3.20;99.90
7576;DHT22;3829;50.798;4.358;2024-01-15T02:46:40;3.30;99.90
7576;DHT22;3829;50.798;4.358;2024-01-15T02:49:05;3.20;99.90
7576;DHT22;3829;50.798;4.358;2024-01-15T02:51:31;3.30;99.90
7576;DHT22;3829;50.798;4.358;2024-01-15T02:53:57;3.30;99.90
7576;DHT22;3829;50.798;4.358;2024-01-15T02:56:22;3.10;99.90
7576;DHT22;3829;50.798;4.358;2024-01-15T02:58:48;3.20;99.90
7576;DHT22;3829;50.798;4.358;2024-01-15T03:01:13;3.20;99.90
7576;DHT22;3829;50.798;4.358;2024-01-15T03:03:40;3.20;99.90
7576;DHT22;3829;50.798;4.358;2024-01-15T03:06:05;3.10;99.90
7576;DHT22;3829;50.798;4.358;2024-01-15T03:08:31;3.10;99.90
7576;DHT22;3829;50.798;4.358;2024-01-15T03:10:57;3.20;99.90
7576;DHT22;3829;50.798;4.358;2024-01-15T03:13:22;3.20;99.90
7576;DHT22;3829;50.798;4.358;2024-01-15T03:15:48;3.20;99.90
7576;DHT22;3829;50.798;4.358;2024-01-15T03:18:13;3.20;99.90
7576;DHT22;3829;50.798;4.358;2024-01-15T03:20:39;3.10;99.90
7576;DHT22;3829;50.798;4.358;2024-01-15T03:23:04;3.20;99.90
7576;DHT22;3829;50.798;4.358;2024-01-15T03:25:30;3.10;99.90
7576;DHT22;3829;50.798;4.358;2024-01-15T03:27:55;3.30;99.90
7576;DHT22;3829;50.798;4.358;2024-01-15T03:30:21;3.30;99.90
7576;DHT22;3829;50.798;4.358;2024-01-15T03:32:46;3.30;99.90
7576;DHT22;3829;50.798;4.358;2024-01-15T03:35:12;3.30;99.90
7576;DHT22;3829;50.798;4.358;2024-01-15T03:37:38;3.30;99.90
7576;DHT22;3829;50.798;4.358;2024-01-15T03:40:04;3.20;99.90
7576;DHT22;3829;50.798;4.358;2024-01-15T03:42:30;3.30;99.90
7576;DHT22;3829;50.798;4.358;2024-01-15T03:44:55;3.20;99.90
7576;DHT22;3829;50.798;4.358;2024-01-15T03:47:21;3.10;99.90
7576;DHT22;3829;50.798;4.358;2024-01-15T03:49:46;3.00;99.90
7576;DHT22;3829;50.798;4.358;2024-01-15T03:52:12;3.00;99.90
7576;DHT22;3829;50.798;4.358;2024-01-15T03:54:37;3.00;99.90
7576;DHT22;3829;50.798;4.358;2024-01-15T03:57:03;3.00;99.90
7576;DHT22;3829;50.798;4.358;2024-01-15T03:59:29;3.00;99.90
7576;DHT22;3829;50.798;4.358;2024-01-15T04:01:54;3.00;99.90
7576;DHT22;3829;50.798;4.358;2024-01-15T04:04:20;3.00;99.90
7576;DHT22;3829;50.798;4.358;2024-01-15T04:06:45;3.00;99.90
7576;DHT22;3829;50.798;4.358;2024-01-15T04:09:13;3.00;99.90
7576;DHT22;3829;50.798;4.358;2024-01-15T04:11:39;3.00;99.90
7576;DHT22;3829;50.798;4.358;2024-01-15T04:14:05;3.10;99.90
7576;DHT22;3829;50.798;4.358;2024-01-15T04:16:30;3.10;99.90
7576;DHT22;3829;50.798;4.358;2024-01-15T04:18:56;3.10;99.90
7576;DHT22;3829;50.798;4.358;2024-01-15T04:21:21;3.10;99.90
7576;DHT22;3829;50.798;4.358;2024-01-15T04:23:47;3.10;99.90
7576;DHT22;3829;50.798;4.358;2024-01-15T04:26:13;3.10;99.90
7576;DHT22;3829;50.798;4.358;2024-01-15T04:28:38;3.10;99.90
7576;DHT22;3829;50.798;4.358;2024-01-15T04:31:04;3.10;99.90
7576;DHT22;3829;50.798;4.358;2024-01-15T04:33:29;3.10;99.90
7576;DHT22;3829;50.798;4.358;2024-01-15T04:35:55;3.00;99.90
7576;DHT22;3829;50.798;4.358;2024-01-15T04:38:20;2.90;99.90
7576;DHT22;3829;50.798;4.358;2024-01-15T04:40:46;2.90;99.90
7576;DHT22;3829;50.798;4.358;2024-01-15T04:43:11;2.90;99.90
7576;DHT22;3829;50.798;4.358;2024-01-15T04:45:37;2.80;99.90
7576;DHT22;3829;50.798;4.358;2024-01-15T04:48:03;2.90;99.90
7576;DHT22;3829;50.798;4.358;2024-01-15T04:50:28;2.90;99.90
7576;DHT22;3829;50.798;4.358;2024-01-15T04:52:54;2.80;99.90
7576;DHT22;3829;50.798;4.358;2024-01-15T04:55:19;2.80;99.90
7576;DHT22;3829;50.798;4.358;2024-01-15T04:57:45;2.70;99.90
7576;DHT22;3829;50.798;4.358;2024-01-15T05:00:11;2.70;99.90
7576;DHT22;3829;50.798;4.358;2024-01-15T05:02:38;2.70;99.90
7576;DHT22;3829;50.798;4.358;2024-01-15T05:05:04;2.60;99.90
7576;DHT22;3829;50.798;4.358;2024-01-15T05:07:30;2.60;99.90
7576;DHT22;3829;50.798;4.358;2024-01-15T05:09:56;2.60;99.90
7576;DHT22;3829;50.798;4.358;2024-01-15T05:12:22;2.50;99.90
7576;DHT22;3829;50.798;4.358;2024-01-15T05:14:47;2.60;99.90
7576;DHT22;3829;50.798;4.358;2024-01-15T05:17:13;2.50;99.90
7576;DHT22;3829;50.798;4.358;2024-01-15T05:19:38;2.60;99.90
7576;DHT22;3829;50.798;4.358;2024-01-15T05:22:04;2.50;99.90
7576;DHT22;3829;50.798;4.358;2024-01-15T05:24:29;2.40;99.90
7576;DHT22;3829;50.798;4.358;2024-01-15T05:26:55;2.50;99.90
7576;DHT22;3829;50.798;4.358;2024-01-15T05:29:20;2.40;99.90
7576;DHT22;3829;50.798;4.358;2024-01-15T05:31:46;2.30;99.90
7576;DHT22;3829;50.798;4.358;2024-01-15T05:34:12;2.20;99.90
7576;DHT22;3829;50.798;4.358;2024-01-15T05:36:37;2.20;99.90
7576;DHT22;3829;50.798;4.358;2024-01-15T05:39:03;2.10;99.90
7576;DHT22;3829;50.798;4.358;2024-01-15T05:41:29;2.00;99.90
7576;DHT22;3829;50.798;4.358;2024-01-15T05:43:54;2.10;99.90
7576;DHT22;3829;50.798;4.358;2024-01-15T05:46:20;2.10;99.90
7576;DHT22;3829;50.798;4.358;2024-01-15T05:48:45;2.10;99.90
7576;DHT22;3829;50.798;4.358;2024-01-15T05:51:12;2.10;99.90
7576;DHT22;3829;50.798;4.358;2024-01-15T05:53:37;2.00;99.90
7576;DHT22;3829;50.798;4.358;2024-01-15T05:56:05;2.00;99.90
7576;DHT22;3829;50.798;4.358;2024-01-15T05:58:31;1.90;99.90
7576;DHT22;3829;50.798;4.358;2024-01-15T06:00:56;1.90;99.90
7576;DHT22;3829;50.798;4.358;2024-01-15T06:03:22;1.90;99.90
7576;DHT22;3829;50.798;4.358;2024-01-15T06:05:48;1.90;99.90
7576;DHT22;3829;50.798;4.358;2024-01-15T06:08:13;1.90;99.90
7576;DHT22;3829;50.798;4.358;2024-01-15T06:10:40;1.90;99.90
7576;DHT22;3829;50.798;4.358;2024-01-15T06:13:05;1.90;99.90
7576;DHT22;3829;50.798;4.358;2024-01-15T06:15:31;1.90;99.90
7576;DHT22;3829;50.798;4.358;2024-01-15T06:17:56;1.90;99.90
7576;DHT22;3829;50.798;4.358;2024-01-15T06:20:22;1.80;99.90
7576;DHT22;3829;50.798;4.358;2024-01-15T06:22:47;1.80;99.90
7576;DHT22;3829;50.798;4.358;2024-01-15T06:25:13;1.80;99.90
7576;DHT22;3829;50.798;4.358;2024-01-15T06:27:38;1.90;99.90
7576;DHT22;3829;50.798;4.358;2024-01-15T06:30:04;1.90;99.90
7576;DHT22;3829;50.798;4.358;2024-01-15T06:32:30;1.90;99.90
7576;DHT22;3829;50.798;4.358;2024-01-15T06:34:56;2.00;99.90
7576;DHT22;3829;50.798;4.358;2024-01-15T06:37:21;1.90;99.90
7576;DHT22;3829;50.798;4.358;2024-01-15T06:39:47;1.90;99.90
7576;DHT22;3829;50.798;4.358;2024-01-15T06:42:13;1.70;99.90
7576;DHT22;3829;50.798;4.358;2024-01-15T06:44:38;1.70;99.90
7576;DHT22;3829;50.798;4.358;2024-01-15T06:47:05;1.60;99.90
7576;DHT22;3829;50.798;4.358;2024-01-15T06:49:30;1.60;99.90
7576;DHT22;3829;50.798;4.358;2024-01-15T06:51:56;1.70;99.90
7576;DHT22;3829;50.798;4.358;2024-01-15T06:54:21;1.70;99.90
7576;DHT22;3829;50.798;4.358;2024-01-15T06:56:47;1.70;99.90
7576;DHT22;3829;50.798;4.358;2024-01-15T06:59:12;1.60;99.90
7576;DHT22;3829;50.798;4.358;2024-01-15T07:01:38;1.60;99.90
7576;DHT22;3829;50.798;4.358;2024-01-15T07:04:03;1.60;99.90
7576;DHT22;3829;50.798;4.358;2024-01-15T07:06:29;1.60;99.90
7576;DHT22;3829;50.798;4.358;2024-01-15T07:08:56;1.50;99.90
7576;DHT22;3829;50.798;4.358;2024-01-15T07:11:22;1.50;99.90
7576;DHT22;3829;50.798;4.358;2024-01-15T07:13:47;1.50;99.90
7576;DHT22;3829;50.798;4.358;2024-01-15T07:16:13;1.50;99.90
7576;DHT22;3829;50.798;4.358;2024-01-15T07:18:38;1.40;99.90
7576;DHT22;3829;50.798;4.358;2024-01-15T07:21:04;1.40;99.90
7576;DHT22;3829;50.798;4.358;2024-01-15T07:23:31;1.30;99.90
7576;DHT22;3829;50.798;4.358;2024-01-15T07:25:57;1.20;99.90
7576;DHT22;3829;50.798;4.358;2024-01-15T07:28:22;1.20;99.90
7576;DHT22;3829;50.798;4.358;2024-01-15T07:30:48;1.20;99.90
7576;DHT22;3829;50.798;4.358;2024-01-15T07:33:13;1.20;99.90
7576;DHT22;3829;50.798;4.358;2024-01-15T07:35:39;1.30;99.90
7576;DHT22;3829;50.798;4.358;2024-01-15T07:38:05;1.20;99.90
7576;DHT22;3829;50.798;4.358;2024-01-15T07:40:30;1.30;99.90
7576;DHT22;3829;50.798;4.358;2024-01-15T07:42:56;1.30;99.90
7576;DHT22;3829;50.798;4.358;2024-01-15T07:45:21;1.30;99.90
7576;DHT22;3829;50.798;4.358;2024-01-15T07:47:47;1.20;99.90
7576;DHT22;3829;50.798;4.358;2024-01-15T07:50:12;1.20;99.90
7576;DHT22;3829;50.798;4.358;2024-01-15T07:52:40;1.20;99.90
7576;DHT22;3829;50.798;4.358;2024-01-15T07:55:07;1.20;99.90
7576;DHT22;3829;50.798;4.358;2024-01-15T07:57:33;1.20;99.90
7576;DHT22;3829;50.798;4.358;2024-01-15T07:59:58;1.30;99.90
7576;DHT22;3829;50.798;4.358;2024-01-15T08:02:24;1.30;99.90
7576;DHT22;3829;50.798;4.358;2024-01-15T08:04:49;1.30;99.90
7576;DHT22;3829;50.798;4.358;2024-01-15T08:07:15;1.30;99.90
7576;DHT22;3829;50.798;4.358;2024-01-15T08:09:41;1.30;99.90
7576;DHT22;3829;50.798;4.358;2024-01-15T08:12:07;1.50;99.90
7576;DHT22;3829;50.798;4.358;2024-01-15T08:14:32;1.40;99.90
7576;DHT22;3829;50.798;4.358;2024-01-15T08:16:58;1.30;99.90
7576;DHT22;3829;50.798;4.358;2024-01-15T08:19:24;1.40;99.90
7576;DHT22;3829;50.798;4.358;2024-01-15T08:21:49;1.50;99.90
7576;DHT22;3829;50.798;4.358;2024-01-15T08:24:15;1.50;99.90
7576;DHT22;3829;50.798;4.358;2024-01-15T08:26:42;1.60;99.90
7576;DHT22;3829;50.798;4.358;2024-01-15T08:29:07;1.60;99.90
7576;DHT22;3829;50.798;4.358;2024-01-15T08:31:33;1.60;99.90
7576;DHT22;3829;50.798;4.358;2024-01-15T08:33:58;1.70;99.90
7576;DHT22;3829;50.798;4.358;2024-01-15T08:36:24;1.70;99.90
7576;DHT22;3829;50.798;4.358;2024-01-15T08:38:50;1.80;99.90
7576;DHT22;3829;50.798;4.358;2024-01-15T08:41:16;1.70;99.90
7576;DHT22;3829;50.798;4.358;2024-01-15T08:43:41;1.80;99.90
7576;DHT22;3829;50.798;4.358;2024-01-15T08:46:07;1.90;99.90
7576;DHT22;3829;50.798;4.358;2024-01-15T08:48:32;2.00;99.90
7576;DHT22;3829;50.798;4.358;2024-01-15T08:50:58;2.10;99.90
7576;DHT22;3829;50.798;4.358;2024-01-15T08:53:24;2.10;99.90
7576;DHT22;3829;50.798;4.358;2024-01-15T08:55:49;2.10;99.90
7576;DHT22;3829;50.798;4.358;2024-01-15T08:58:15;2.00;99.90
7576;DHT22;3829;50.798;4.358;2024-01-15T09:00:41;2.00;99.90
7576;DHT22;3829;50.798;4.358;2024-01-15T09:03:07;2.00;99.90
7576;DHT22;3829;50.798;4.358;2024-01-15T09:05:34;1.90;99.90
7576;DHT22;3829;50.798;4.358;2024-01-15T09:08:03;1.90;99.90
7576;DHT22;3829;50.798;4.358;2024-01-15T09:10:29;2.00;99.90
7576;DHT22;3829;50.798;4.358;2024-01-15T09:12:54;2.00;99.90
7576;DHT22;3829;50.798;4.358;2024-01-15T09:15:20;2.10;99.90
7576;DHT22;3829;50.798;4.358;2024-01-15T09:17:45;2.10;99.90
7576;DHT22;3829;50.798;4.358;2024-01-15T09:20:11;2.10;99.90
7576;DHT22;3829;50.798;4.358;2024-01-15T09:22:38;2.10;99.90
7576;DHT22;3829;50.798;4.358;2024-01-15T09:25:06;2.10;99.90
7576;DHT22;3829;50.798;4.358;2024-01-15T09:27:31;2.00;99.90
7576;DHT22;3829;50.798;4.358;2024-01-15T09:29:58;2.00;99.90
7576;DHT22;3829;50.798;4.358;2024-01-15T09:32:23;2.10;99.90
7576;DHT22;3829;50.798;4.358;2024-01-15T09:34:49;2.20;99.90
7576;DHT22;3829;50.798;4.358;2024-01-15T09:37:14;2.20;99.90
7576;DHT22;3829;50.798;4.358;2024-01-15T09:39:40;2.30;99.90
7576;DHT22;3829;50.798;4.358;2024-01-15T09:42:07;2.40;99.90
7576;DHT22;3829;50.798;4.358;2024-01-15T09:44:33;2.40;99.90
7576;DHT22;3829;50.798;4.358;2024-01-15T09:46:59;2.30;99.90
7576;DHT22;3829;50.798;4.358;2024-01-15T09:49:25;2.40;99.90
7576;DHT22;3829;50.798;4.358;2024-01-15T09:51:51;2.40;99.90
7576;DHT22;3829;50.798;4.358;2024-01-15T09:54:17;2.30;99.90
7576;DHT22;3829;50.798;4.358;2024-01-15T09:56:46;2.50;99.90
7576;DHT22;3829;50.798;4.358;2024-01-15T09:59:15;2.50;99.90
7576;DHT22;3829;50.798;4.358;2024-01-15T10:01:41;2.50;99.90
7576;DHT22;3829;50.798;4.358;2024-01-15T10:04:08;2.60;99.90
7576;DHT22;3829;50.798;4.358;2024-01-15T10:06:34;2.70;99.90
7576;DHT22;3829;50.798;4.358;2024-01-15T10:09:00;2.70;99.90
7576;DHT22;3829;50.798;4.358;2024-01-15T10:11:26;2.70;99.90
7576;DHT22;3829;50.798;4.358;2024-01-15T10:13:52;2.80;99.90
7576;DHT22;3829;50.798;4.358;2024-01-15T10:16:19;2.90;99.90
7576;DHT22;3829;50.798;4.358;2024-01-15T10:18:45;3.00;99.90
7576;DHT22;3829;50.798;4.358;2024-01-15T10:21:10;2.90;99.90
7576;DHT22;3829;50.798;4.358;2024-01-15T10:23:36;2.80;99.90
7576;DHT22;3829;50.798;4.358;2024-01-15T10:26:02;2.80;99.90
7576;DHT22;3829;50.798;4.358;2024-01-15T10:28:29;2.90;99.90
7576;DHT22;3829;50.798;4.358;2024-01-15T10:30:58;3.00;99.90
7576;DHT22;3829;50.798;4.358;2024-01-15T10:33:25;3.20;99.90
7576;DHT22;3829;50.798;4.358;2024-01-15T10:35:54;3.10;99.90
7576;DHT22;3829;50.798;4.358;2024-01-15T10:38:21;2.90;99.90
7576;DHT22;3829;50.798;4.358;2024-01-15T10:40:48;3.00;99.90
7576;DHT22;3829;50.798;4.358;2024-01-15T10:43:16;3.10;99.90
7576;DHT22;3829;50.798;4.358;2024-01-15T10:45:44;3.00;99.90
7576;DHT22;3829;50.798;4.358;2024-01-15T10:48:10;3.10;99.90
7576;DHT22;3829;50.798;4.358;2024-01-15T10:50:36;3.20;99.90
7576;DHT22;3829;50.798;4.358;2024-01-15T10:53:03;3.10;99.90
7576;DHT22;3829;50.798;4.358;2024-01-15T10:55:30;3.00;99.90
7576;DHT22;3829;50.798;4.358;2024-01-15T10:57:57;3.00;99.90
7576;DHT22;3829;50.798;4.358;2024-01-15T11:00:24;3.10;99.90
7576;DHT22;3829;50.798;4.358;2024-01-15T11:02:51;3.20;99.90
7576;DHT22;3829;50.798;4.358;2024-01-15T11:05:18;3.30;99.90
7576;DHT22;3829;50.798;4.358;2024-01-15T11:07:48;3.40;99.90
7576;DHT22;3829;50.798;4.358;2024-01-15T11:12:59;3.50;99.90
7576;DHT22;3829;50.798;4.358;2024-01-15T11:15:24;3.60;99.90
7576;DHT22;3829;50.798;4.358;2024-01-15T11:17:59;3.70;99.90
7576;DHT22;3829;50.798;4.358;2024-01-15T11:20:26;4.00;99.90
7576;DHT22;3829;50.798;4.358;2024-01-15T11:22:51;4.00;99.90
7576;DHT22;3829;50.798;4.358;2024-01-15T11:25:19;4.20;99.90
7576;DHT22;3829;50.798;4.358;2024-01-15T11:27:47;4.20;99.90
7576;DHT22;3829;50.798;4.358;2024-01-15T11:30:13;4.20;99.90
7576;DHT22;3829;50.798;4.358;2024-01-15T11:32:40;4.00;99.90
7576;DHT22;3829;50.798;4.358;2024-01-15T11:35:08;3.90;99.90
7576;DHT22;3829;50.798;4.358;2024-01-15T11:37:58;3.90;99.90
7576;DHT22;3829;50.798;4.358;2024-01-15T11:40:37;4.00;99.90
7576;DHT22;3829;50.798;4.358;2024-01-15T11:43:04;4.20;99.90
7576;DHT22;3829;50.798;4.358;2024-01-15T11:45:30;4.00;99.90
7576;DHT22;3829;50.798;4.358;2024-01-15T11:48:10;3.80;99.90
7576;DHT22;3829;50.798;4.358;2024-01-15T11:50:40;3.80;99.90
7576;DHT22;3829;50.798;4.358;2024-01-15T11:53:16;3.80;99.90
7576;DHT22;3829;50.798;4.358;2024-01-15T11:55:44;3.90;99.90
7576;DHT22;3829;50.798;4.358;2024-01-15T11:58:11;3.90;99.90
7576;DHT22;3829;50.798;4.358;2024-01-15T12:00:42;3.80;99.90
7576;DHT22;3829;50.798;4.358;2024-01-15T12:03:08;3.80;99.90
7576;DHT22;3829;50.798;4.358;2024-01-15T12:05:37;3.80;99.90
7576;DHT22;3829;50.798;4.358;2024-01-15T12:08:03;4.00;99.90
7576;DHT22;3829;50.798;4.358;2024-01-15T12:10:28;4.10;99.90
7576;DHT22;3829;50.798;4.358;2024-01-15T12:13:13;4.10;99.90
7576;DHT22;3829;50.798;4.358;2024-01-15T12:15:40;4.20;99.90
7576;DHT22;3829;50.798;4.358;2024-01-15T12:18:08;4.40;99.90
7576;DHT22;3829;50.798;4.358;2024-01-15T12:20:34;4.40;99.90
7576;DHT22;3829;50.798;4.358;2024-01-15T12:23:00;4.40;99.90
7576;DHT22;3829;50.798;4.358;2024-01-15T12:25:27;4.30;99.90
7576;DHT22;3829;50.798;4.358;2024-01-15T12:27:54;4.30;99.90
7576;DHT22;3829;50.798;4.358;2024-01-15T12:30:20;4.40;99.90
7576;DHT22;3829;50.798;4.358;2024-01-15T12:32:46;4.80;99.90
7576;DHT22;3829;50.798;4.358;2024-01-15T12:35:13;5.00;99.90
7576;DHT22;3829;50.798;4.358;2024-01-15T12:37:39;5.40;99.90
7576;DHT22;3829;50.798;4.358;2024-01-15T12:40:06;5.30;99.90
7576;DHT22;3829;50.798;4.358;2024-01-15T12:42:33;5.20;99.90
7576;DHT22;3829;50.798;4.358;2024-01-15T12:45:00;5.00;99.90
7576;DHT22;3829;50.798;4.358;2024-01-15T12:47:26;5.10;99.90
7576;DHT22;3829;50.798;4.358;2024-01-15T12:49:52;5.10;99.90
7576;DHT22;3829;50.798;4.358;2024-01-15T12:52:19;4.90;99.90
7576;DHT22;3829;50.798;4.358;2024-01-15T12:54:48;4.70;99.90
7576;DHT22;3829;50.798;4.358;2024-01-15T12:57:14;4.60;99.90
7576;DHT22;3829;50.798;4.358;2024-01-15T12:59:39;4.40;99.90
7576;DHT22;3829;50.798;4.358;2024-01-15T13:02:05;4.30;99.90
7576;DHT22;3829;50.798;4.358;2024-01-15T13:04:32;4.30;99.90
7576;DHT22;3829;50.798;4.358;2024-01-15T13:06:58;4.10;99.90
7576;DHT22;3829;50.798;4.358;2024-01-15T13:09:23;4.10;99.90
7576;DHT22;3829;50.798;4.358;2024-01-15T13:11:49;4.10;99.90
7576;DHT22;3829;50.798;4.358;2024-01-15T13:14:14;3.90;99.90
7576;DHT22;3829;50.798;4.358;2024-01-15T13:16:40;4.20;99.90
7576;DHT22;3829;50.798;4.358;2024-01-15T13:19:09;4.00;99.90
7576;DHT22;3829;50.798;4.358;2024-01-15T13:21:37;4.00;99.90
7576;DHT22;3829;50.798;4.358;2024-01-15T13:24:03;3.90;99.90
7576;DHT22;3829;50.798;4.358;2024-01-15T13:26:31;3.90;99.90
7576;DHT22;3829;50.798;4.358;2024-01-15T13:28:57;3.90;99.90
7576;DHT22;3829;50.798;4.358;2024-01-15T13:31:22;3.90;99.90
7576;DHT22;3829;50.798;4.358;2024-01-15T13:33:48;4.00;99.90
7576;DHT22;3829;50.798;4.358;2024-01-15T13:36:14;4.10;99.90
7576;DHT22;3829;50.798;4.358;2024-01-15T13:38:39;4.20;99.90
7576;DHT22;3829;50.798;4.358;2024-01-15T13:41:05;4.30;99.90
7576;DHT22;3829;50.798;4.358;2024-01-15T13:43:32;4.30;99.90
7576;DHT22;3829;50.798;4.358;2024-01-15T13:45:59;4.20;99.90
7576;DHT22;3829;50.798;4.358;2024-01-15T13:48:25;4.10;99.90
7576;DHT22;3829;50.798;4.358;2024-01-15T13:50:52;4.30;99.90
7576;DHT22;3829;50.798;4.358;2024-01-15T13:53:17;4.50;99.90
7576;DHT22;3829;50.798;4.358;2024-01-15T13:55:44;4.50;99.90
7576;DHT22;3829;50.798;4.358;2024-01-15T13:58:10;4.60;99.90
7576;DHT22;3829;50.798;4.358;2024-01-15T14:00:35;4.60;99.90
7576;DHT22;3829;50.798;4.358;2024-01-15T14:03:01;4.50;99.90
7576;DHT22;3829;50.798;4.358;2024-01-15T14:05:27;4.40;99.90
7576;DHT22;3829;50.798;4.358;2024-01-15T14:07:53;4.00;99.90
7576;DHT22;3829;50.798;4.358;2024-01-15T14:10:19;3.70;99.90
7576;DHT22;3829;50.798;4.358;2024-01-15T14:12:46;3.50;99.90
7576;DHT22;3829;50.798;4.358;2024-01-15T14:15:11;3.00;99.90
7576;DHT22;3829;50.798;4.358;2024-01-15T14:17:37;3.00;99.90
7576;DHT22;3829;50.798;4.358;2024-01-15T14:20:04;3.00;99.90
7576;DHT22;3829;50.798;4.358;2024-01-15T14:22:30;3.00;99.90
7576;DHT22;3829;50.798;4.358;2024-01-15T14:24:56;3.00;99.90
7576;DHT22;3829;50.798;4.358;2024-01-15T14:27:21;3.00;99.90
7576;DHT22;3829;50.798;4.358;2024-01-15T14:29:47;3.20;99.90
7576;DHT22;3829;50.798;4.358;2024-01-15T14:32:12;3.20;99.90
7576;DHT22;3829;50.798;4.358;2024-01-15T14:34:38;3.20;99.90
7576;DHT22;3829;50.798;4.358;2024-01-15T14:37:04;3.30;99.90
7576;DHT22;3829;50.798;4.358;2024-01-15T14:39:29;3.30;99.90
7576;DHT22;3829;50.798;4.358;2024-01-15T14:41:57;3.20;99.90
7576;DHT22;3829;50.798;4.358;2024-01-15T14:44:22;3.30;99.90
7576;DHT22;3829;50.798;4.358;2024-01-15T14:46:48;3.20;99.90
7576;DHT22;3829;50.798;4.358;2024-01-15T14:49:14;3.20;99.90
7576;DHT22;3829;50.798;4.358;2024-01-15T14:51:40;3.00;99.90
7576;DHT22;3829;50.798;4.358;2024-01-15T14:54:05;2.90;99.90
7576;DHT22;3829;50.798;4.358;2024-01-15T14:56:31;2.90;99.90
7576;DHT22;3829;50.798;4.358;2024-01-15T14:58:56;3.00;99.90
7576;DHT22;3829;50.798;4.358;2024-01-15T15:01:22;3.00;99.90
7576;DHT22;3829;50.798;4.358;2024-01-15T15:03:48;3.00;99.90
7576;DHT22;3829;50.798;4.358;2024-01-15T15:06:14;3.10;99.90
7576;DHT22;3829;50.798;4.358;2024-01-15T15:08:39;3.10;99.90
7576;DHT22;3829;50.798;4.358;2024-01-15T15:11:06;2.70;99.90
7576;DHT22;3829;50.798;4.358;2024-01-15T15:13:32;2.70;99.90
7576;DHT22;3829;50.798;4.358;2024-01-15T15:15:57;2.50;99.90
7576;DHT22;3829;50.798;4.358;2024-01-15T15:18:23;2.30;99.90
7576;DHT22;3829;50.798;4.358;2024-01-15T15:20:49;2.20;99.90
7576;DHT22;3829;50.798;4.358;2024-01-15T15:23:15;2.00;99.90
7576;DHT22;3829;50.798;4.358;2024-01-15T15:25:41;1.90;99.90
7576;DHT22;3829;50.798;4.358;2024-01-15T15:28:08;1.90;99.90
7576;DHT22;3829;50.798;4.358;2024-01-15T15:30:35;1.90;99.90
7576;DHT22;3829;50.798;4.358;2024-01-15T15:33:00;1.80;99.90
7576;DHT22;3829;50.798;4.358;2024-01-15T15:35:26;1.90;99.90
7576;DHT22;3829;50.798;4.358;2024-01-15T15:37:51;1.80;99.90
7576;DHT22;3829;50.798;4.358;2024-01-15T15:40:17;1.90;99.90
7576;DHT22;3829;50.798;4.358;2024-01-15T15:42:43;2.00;99.90
7576;DHT22;3829;50.798;4.358;2024-01-15T15:45:09;2.10;99.90
7576;DHT22;3829;50.798;4.358;2024-01-15T15:47:35;2.20;99.90
7576;DHT22;3829;50.798;4.358;2024-01-15T15:50:01;2.20;99.90
7576;DHT22;3829;50.798;4.358;2024-01-15T15:52:27;2.20;99.90
7576;DHT22;3829;50.798;4.358;2024-01-15T15:54:52;2.20;99.90
7576;DHT22;3829;50.798;4.358;2024-01-15T15:57:19;2.00;99.90
7576;DHT22;3829;50.798;4.358;2024-01-15T15:59:45;2.10;99.90
7576;DHT22;3829;50.798;4.358;2024-01-15T16:02:10;2.10;99.90
7576;DHT22;3829;50.798;4.358;2024-01-15T16:04:36;2.00;99.90
7576;DHT22;3829;50.798;4.358;2024-01-15T16:07:02;1.90;99.90
7576;DHT22;3829;50.798;4.358;2024-01-15T16:09:28;1.90;99.90
7576;DHT22;3829;50.798;4.358;2024-01-15T16:11:54;1.90;99.90